< < Back
Terminal Aerodrome Forecast


Current Version              Previous Versions:   1  2  3  4  5  6  7  8  9  

Terminal Aerodrome Forecast

049
FTUS44 KBMX 221120
TAFTCL
TAF
KTCL 221120Z 2212/2312 36004KT P6SM BKN120
     FM221500 02010KT P6SM SCT100
     FM230300 00000KT P6SM SKC=

Latest METAR

880
SAUS70 KWBC 231100 RRI
MTRTCL
METAR KTCL 231053Z AUTO 31004KT 6SM BR CLR 12/11 A3027 RMK AO2 SLP250
T01220106


USA.gov is the U.S. government's official web portal to all federal, state and local government web resources and services.